Time;durP1;ratioP1;P1;durP2;ratioP2;P2;SDS_P1;SDS_P2;PMS_P1;PMS_P2;Temp;Humidity;BMP_temperature;BMP_pressure;BME280_temperature;BME280_humidity;BME280_pressure;Samples;Min_cycle;Max_cycle;Signal;HPM_P1;HPM_P2
2022/02/16 00:00:14;;;;;;;5.93;5.32;;;;;;;4.17;100.00;96263.50;4994841;28;20648;-53
2022/02/16 00:02:44;;;;;;;6.07;5.43;;;;;;;4.24;100.00;96269.13;4990079;28;20065;-56
2022/02/16 00:05:13;;;;;;;6.28;5.57;;;;;;;4.26;100.00;96260.22;4986951;28;20119;-57
2022/02/16 00:07:42;;;;;;;5.68;5.05;;;;;;;4.21;100.00;96259.72;4996464;28;20089;-57
2022/02/16 00:10:12;;;;;;;5.97;5.47;;;;;;;4.12;100.00;96259.56;4991897;28;20070;-57
2022/02/16 00:12:41;;;;;;;6.10;5.50;;;;;;;4.27;100.00;96251.47;4984050;28;20193;-58
2022/02/16 00:15:11;;;;;;;5.88;5.38;;;;;;;4.18;100.00;96257.34;4975869;28;20093;-54
2022/02/16 00:17:40;;;;;;;5.75;5.25;;;;;;;4.13;100.00;96262.06;4969723;28;20062;-58
2022/02/16 00:20:12;;;;;;;6.30;5.63;;;;;;;4.27;100.00;96255.88;4993392;28;20444;-56
2022/02/16 00:22:41;;;;;;;6.25;5.65;;;;;;;4.06;100.00;96258.25;4969277;28;20497;-57
2022/02/16 00:25:10;;;;;;;7.53;5.70;;;;;;;4.14;100.00;96258.50;4969886;28;20062;-58
2022/02/16 00:27:39;;;;;;;6.15;5.53;;;;;;;4.34;100.00;96251.84;4970010;28;20105;-54
2022/02/16 00:30:08;;;;;;;6.63;5.95;;;;;;;4.17;100.00;96255.69;4969180;28;20085;-53
2022/02/16 00:32:37;;;;;;;6.85;5.97;;;;;;;4.31;100.00;96243.41;4970013;28;20513;-57
2022/02/16 00:35:06;;;;;;;6.43;5.70;;;;;;;4.27;100.00;96237.59;4988217;28;20078;-58
2022/02/16 00:37:36;;;;;;;6.63;6.03;;;;;;;4.44;100.00;96237.19;4987687;28;20070;-55
2022/02/16 00:40:05;;;;;;;6.43;5.82;;;;;;;4.41;100.00;96231.38;4983459;28;20062;-54
2022/02/16 00:42:34;;;;;;;6.10;5.60;;;;;;;4.42;100.00;96225.19;4983261;28;20066;-58
2022/02/16 00:45:05;;;;;;;6.20;5.60;;;;;;;4.45;100.00;96228.41;4986612;28;20070;-53
2022/02/16 00:47:33;;;;;;;6.18;5.32;;;;;;;4.33;100.00;96216.22;4988602;28;20073;-51
2022/02/16 00:50:02;;;;;;;6.15;5.55;;;;;;;4.32;100.00;96214.59;4987631;28;20074;-57
2022/02/16 00:52:31;;;;;;;6.45;5.63;;;;;;;4.29;100.00;96218.25;4985374;28;20078;-56
2022/02/16 00:55:00;;;;;;;6.43;5.80;;;;;;;4.30;100.00;96213.84;4985903;28;20089;-53
2022/02/16 00:57:29;;;;;;;7.97;5.70;;;;;;;4.24;100.00;96203.88;4985474;28;20070;-53
2022/02/16 00:59:58;;;;;;;5.35;4.95;;;;;;;4.25;100.00;96201.16;4985188;28;20556;-60
2022/02/16 01:02:30;;;;;;;5.63;5.13;;;;;;;4.14;100.00;96202.88;4985817;28;20096;-59
2022/02/16 01:04:58;;;;;;;6.10;5.60;;;;;;;4.23;100.00;96210.88;4985775;28;20093;-53
2022/02/16 01:07:27;;;;;;;5.40;5.00;;;;;;;4.24;100.00;96217.75;4983430;28;20065;-57
2022/02/16 01:09:56;;;;;;;5.47;4.97;;;;;;;4.28;100.00;96211.38;4987425;28;20065;-54
2022/02/16 01:12:26;;;;;;;6.03;5.05;;;;;;;4.39;100.00;96201.91;4987734;28;20070;-54
2022/02/16 01:14:54;;;;;;;5.38;4.90;;;;;;;4.40;100.00;96191.34;4988806;28;20074;-57
2022/02/16 01:17:23;;;;;;;4.80;4.40;;;;;;;4.32;100.00;96198.91;4984814;28;20086;-56
2022/02/16 01:19:52;;;;;;;6.43;4.95;;;;;;;4.42;100.00;96192.06;4990096;28;20169;-55
2022/02/16 01:22:20;;;;;;;4.97;4.50;;;;;;;4.17;100.00;96190.44;4984231;28;20605;-58
2022/02/16 01:24:49;;;;;;;5.68;4.68;;;;;;;4.32;100.00;96185.03;4985486;28;20088;-53
2022/02/16 01:27:17;;;;;;;5.00;4.60;;;;;;;4.37;100.00;96175.94;4986221;28;20073;-56
2022/02/16 01:29:47;;;;;;;4.97;4.30;;;;;;;4.34;100.00;96173.56;4984306;28;20081;-58
2022/02/16 01:32:16;;;;;;;4.55;4.13;;;;;;;4.36;100.00;96182.09;4985715;28;20089;-57
2022/02/16 01:34:44;;;;;;;4.50;4.10;;;;;;;4.27;100.00;96175.78;4985980;28;23794;-58
2022/02/16 01:37:13;;;;;;;4.18;3.88;;;;;;;4.36;100.00;96171.63;4988012;28;20100;-58
2022/02/16 01:39:59;;;;;;;4.50;4.15;;;;;;;4.41;100.00;96166.94;4988145;28;20054;-57
2022/02/16 01:42:28;;;;;;;4.22;3.83;;;;;;;4.42;100.00;96157.31;4987816;28;20070;-56
2022/02/16 01:44:58;;;;;;;4.50;4.07;;;;;;;4.34;100.00;96167.50;4990069;28;20210;-52
2022/02/16 01:47:26;;;;;;;4.88;3.78;;;;;;;4.39;100.00;96165.38;4988368;28;20089;-56
2022/02/16 01:49:55;;;;;;;4.55;4.15;;;;;;;4.33;100.00;96153.59;4992482;28;20106;-55
2022/02/16 01:52:23;;;;;;;4.22;3.80;;;;;;;4.70;100.00;96153.47;4975862;28;20074;-55
2022/02/16 01:54:52;;;;;;;4.15;3.85;;;;;;;4.59;100.00;96143.00;4968475;28;20074;-58
2022/02/16 01:57:20;;;;;;;4.85;3.70;;;;;;;4.40;100.00;96141.75;4971031;28;21782;-58
2022/02/16 01:59:49;;;;;;;4.03;3.70;;;;;;;4.40;100.00;96138.31;4978628;28;20377;-56
2022/02/16 02:02:19;;;;;;;3.97;3.67;;;;;;;4.42;100.00;96129.44;4988648;28;20089;-56
2022/02/16 02:04:47;;;;;;;4.20;3.90;;;;;;;4.36;100.00;96123.81;4989096;28;20094;-55
2022/02/16 02:07:16;;;;;;;3.70;3.50;;;;;;;4.48;100.00;96126.34;4991379;28;20084;-55
2022/02/16 02:09:44;;;;;;;3.72;3.42;;;;;;;4.41;100.00;96140.81;4987136;28;20085;-59
2022/02/16 02:12:13;;;;;;;3.90;3.60;;;;;;;4.48;100.00;96122.91;4979939;28;20066;-54
2022/02/16 02:14:41;;;;;;;3.67;3.47;;;;;;;4.46;100.00;96122.19;4969573;28;20078;-54
2022/02/16 02:17:10;;;;;;;4.00;3.70;;;;;;;4.50;100.00;96114.00;4971179;28;20082;-57
2022/02/16 02:19:40;;;;;;;3.92;3.50;;;;;;;4.51;100.00;96112.25;4964928;28;20532;-58
2022/02/16 02:22:10;;;;;;;3.65;3.40;;;;;;;4.50;100.00;96107.94;4967368;28;20544;-56
2022/02/16 02:24:38;;;;;;;3.75;3.45;;;;;;;4.64;100.00;96112.13;4968155;28;20075;-57
2022/02/16 02:27:07;;;;;;;5.22;3.58;;;;;;;4.57;100.00;96105.72;4976592;28;20480;-54
2022/02/16 02:29:39;;;;;;;3.85;3.65;;;;;;;4.76;100.00;96117.25;4984628;28;20097;-53
2022/02/16 02:32:08;;;;;;;4.20;3.88;;;;;;;4.58;100.00;96117.84;4994569;28;20082;-52
2022/02/16 02:34:36;;;;;;;3.65;3.40;;;;;;;4.90;100.00;96110.16;4986384;28;20388;-55
2022/02/16 02:37:06;;;;;;;3.60;3.30;;;;;;;4.64;100.00;96104.28;4988101;28;20077;-58
2022/02/16 02:39:36;;;;;;;4.28;3.80;;;;;;;4.66;100.00;96098.00;4979716;28;20062;-56
2022/02/16 02:42:04;;;;;;;4.07;3.78;;;;;;;4.66;100.00;96100.63;4972924;28;20477;-58
2022/02/16 02:44:35;;;;;;;3.60;3.40;;;;;;;4.71;100.00;96095.91;4966207;28;20086;-54
2022/02/16 02:47:04;;;;;;;;;;;;;;;4.62;100.00;96093.16;4967310;28;20493;-56
2022/02/16 02:49:32;;;;;;;3.70;3.40;;;;;;;4.55;100.00;96086.75;4969108;28;19965;-58
2022/02/16 02:52:01;;;;;;;3.88;3.60;;;;;;;4.63;100.00;96086.97;4971143;28;20066;-56
2022/02/16 02:54:29;;;;;;;3.47;3.20;;;;;;;4.63;100.00;96086.97;4968972;28;20054;-56
2022/02/16 02:56:59;;;;;;;3.55;3.25;;;;;;;4.70;100.00;96090.78;4967143;28;20077;-56
2022/02/16 02:59:29;;;;;;;3.80;3.50;;;;;;;4.68;100.00;96082.22;4967043;28;20122;-57
2022/02/16 03:01:57;;;;;;;3.80;3.60;;;;;;;4.84;100.00;96077.47;4986230;28;20086;-59
2022/02/16 03:04:28;;;;;;;4.32;3.78;;;;;;;4.84;100.00;96074.88;4973705;28;20070;-59
2022/02/16 03:06:57;;;;;;;4.13;3.72;;;;;;;4.90;100.00;96079.63;4984883;28;20069;-55
2022/02/16 03:09:25;;;;;;;4.40;4.07;;;;;;;4.36;100.00;96075.06;4988340;28;20108;-55
2022/02/16 03:11:54;;;;;;;4.10;3.80;;;;;;;4.32;100.00;96078.03;4985702;28;20054;-58
2022/02/16 03:14:24;;;;;;;4.53;4.20;;;;;;;4.13;100.00;96076.81;4990406;28;20085;-58
2022/02/16 03:16:53;;;;;;;4.88;4.38;;;;;;;4.13;100.00;96081.16;4990816;28;20567;-56
2022/02/16 03:19:22;;;;;;;4.35;4.05;;;;;;;4.01;100.00;96072.47;4986359;28;20070;-54
2022/02/16 03:21:51;;;;;;;4.25;3.95;;;;;;;4.10;100.00;96069.19;4990280;28;20046;-58
2022/02/16 03:24:19;;;;;;;4.47;4.07;;;;;;;4.34;100.00;96069.13;4990861;28;20074;-56
2022/02/16 03:26:47;;;;;;;4.65;4.22;;;;;;;4.26;100.00;96063.66;4987113;28;20793;-56
2022/02/16 03:29:16;;;;;;;4.32;3.92;;;;;;;4.29;100.00;96063.41;4987664;28;20082;-60
2022/02/16 03:31:46;;;;;;;4.70;4.30;;;;;;;3.89;100.00;96074.25;4988373;28;20449;-60
2022/02/16 03:34:15;;;;;;;4.50;4.10;;;;;;;3.90;100.00;96065.47;4971080;28;20062;-52
2022/02/16 03:36:43;;;;;;;4.20;3.90;;;;;;;4.29;100.00;96064.25;4966202;28;20062;-55
2022/02/16 03:39:12;;;;;;;4.38;3.97;;;;;;;4.24;100.00;96060.34;4973235;28;20046;-56
2022/02/16 03:41:40;;;;;;;4.80;4.38;;;;;;;4.57;100.00;96053.50;4983542;28;20820;-59
2022/02/16 03:44:09;;;;;;;4.35;4.03;;;;;;;4.49;100.00;96052.31;4966421;28;20089;-57
2022/02/16 03:46:37;;;;;;;4.35;4.05;;;;;;;4.47;100.00;96049.00;4963341;28;21559;-54
2022/02/16 03:49:07;;;;;;;4.32;3.90;;;;;;;4.31;100.00;96050.28;4970430;28;20492;-60
2022/02/16 03:51:36;;;;;;;4.85;4.40;;;;;;;4.61;100.00;96040.09;4970658;28;20585;-54
2022/02/16 03:54:04;;;;;;;4.30;4.00;;;;;;;4.54;100.00;96044.09;4966816;28;20069;-58
2022/02/16 03:56:33;;;;;;;4.53;4.20;;;;;;;4.62;100.00;96036.53;4969820;28;20059;-57
2022/02/16 03:59:01;;;;;;;4.97;4.00;;;;;;;4.62;100.00;96041.75;4967703;28;20090;-55
2022/02/16 04:01:30;;;;;;;4.80;4.40;;;;;;;4.35;100.00;96042.09;4972007;28;20174;-59
2022/02/16 04:03:58;;;;;;;4.80;4.40;;;;;;;4.48;100.00;96039.38;4970592;28;20062;-59
2022/02/16 04:06:28;;;;;;;4.35;4.05;;;;;;;4.43;100.00;96044.94;4972177;28;20133;-53
2022/02/16 04:08:56;;;;;;;4.70;4.30;;;;;;;4.52;100.00;96035.56;4977712;28;20434;-53
2022/02/16 04:11:26;;;;;;;4.40;4.10;;;;;;;4.56;100.00;96030.94;4983319;28;20042;-57
2022/02/16 04:13:55;;;;;;;4.40;4.10;;;;;;;4.44;100.00;96044.00;4967025;28;20086;-58
2022/02/16 04:16:24;;;;;;;4.68;4.28;;;;;;;4.31;100.00;96035.44;4985333;28;20070;-57
2022/02/16 04:18:53;;;;;;;5.13;4.05;;;;;;;4.25;100.00;96041.13;4984702;28;20069;-53
2022/02/16 04:21:21;;;;;;;4.38;3.97;;;;;;;4.36;100.00;96028.06;4982886;28;20073;-57
2022/02/16 04:23:51;;;;;;;4.38;4.07;;;;;;;4.46;100.00;96018.59;4988940;28;20077;-57
2022/02/16 04:26:20;;;;;;;4.20;3.90;;;;;;;4.42;100.00;96018.94;4985788;28;20086;-51
2022/02/16 04:28:49;;;;;;;4.20;3.90;;;;;;;4.50;100.00;96020.00;4988278;28;20561;-58
2022/02/16 04:31:18;;;;;;;4.20;3.90;;;;;;;4.20;100.00;96015.38;4984705;28;20077;-51
2022/02/16 04:33:47;;;;;;;4.05;3.70;;;;;;;4.19;100.00;96015.47;4985903;28;20492;-56
2022/02/16 04:36:25;;;;;;;3.92;3.65;;;;;;;4.35;100.00;96008.16;4983390;28;20089;-57
2022/02/16 04:38:55;;;;;;;4.50;4.10;;;;;;;4.24;100.00;96005.53;4983886;28;20074;-59
2022/02/16 04:41:24;;;;;;;4.93;4.30;;;;;;;3.89;100.00;96006.44;4987158;28;20082;-59
2022/02/16 04:43:53;;;;;;;3.97;3.78;;;;;;;4.30;100.00;95992.00;4988517;28;20085;-53
2022/02/16 04:46:22;;;;;;;4.20;3.90;;;;;;;4.45;100.00;95982.16;4985975;28;20070;-59
2022/02/16 04:48:50;;;;;;;3.90;3.60;;;;;;;4.16;100.00;95985.22;4985593;28;20069;-51
2022/02/16 04:51:19;;;;;;;4.00;3.70;;;;;;;4.15;100.00;95988.78;4987909;28;20058;-56
2022/02/16 04:53:47;;;;;;;3.60;3.40;;;;;;;3.87;100.00;95984.00;4985080;28;20101;-55
2022/02/16 04:56:18;;;;;;;4.47;4.10;;;;;;;3.95;100.00;95984.25;4987336;28;20085;-57
2022/02/16 04:58:47;;;;;;;4.05;3.75;;;;;;;3.79;100.00;95979.38;4987443;28;20088;-59
2022/02/16 05:01:20;;;;;;;4.05;3.75;;;;;;;4.17;100.00;95983.47;4968393;28;20074;-56
2022/02/16 05:03:49;;;;;;;4.10;3.80;;;;;;;4.32;100.00;95971.00;4963349;28;20078;-56
2022/02/16 05:06:18;;;;;;;4.05;3.75;;;;;;;4.29;100.00;95964.25;4963520;28;20469;-57
2022/02/16 05:08:46;;;;;;;3.90;3.70;;;;;;;4.28;100.00;95960.81;4968425;28;20073;-52
2022/02/16 05:11:14;;;;;;;3.65;3.45;;;;;;;3.85;100.00;95962.41;4985422;28;20165;-55
2022/02/16 05:13:44;;;;;;;3.97;3.67;;;;;;;4.21;100.00;95953.56;4986989;28;20082;-57
2022/02/16 05:16:13;;;;;;;3.90;3.65;;;;;;;4.29;100.00;95951.19;4984087;28;20457;-58
2022/02/16 05:18:41;;;;;;;4.25;3.95;;;;;;;4.23;100.00;95949.06;4994316;28;20099;-55
2022/02/16 05:21:10;;;;;;;4.00;3.70;;;;;;;4.48;100.00;95955.84;4992182;28;20089;-54
2022/02/16 05:23:38;;;;;;;3.60;3.40;;;;;;;4.16;100.00;95942.66;4991597;28;20529;-57
2022/02/16 05:26:06;;;;;;;3.80;3.50;;;;;;;4.22;100.00;95945.63;4999046;28;20108;-51
2022/02/16 05:28:35;;;;;;;3.70;3.50;;;;;;;4.35;100.00;95934.25;4994258;28;20093;-57
2022/02/16 05:31:05;;;;;;;4.32;4.03;;;;;;;4.46;100.00;95935.03;4994548;28;20078;-57
2022/02/16 05:33:33;;;;;;;3.85;3.55;;;;;;;4.27;100.00;95924.41;4992224;28;20069;-58
2022/02/16 05:36:02;;;;;;;4.00;3.70;;;;;;;4.28;100.00;95929.50;4995600;28;20062;-59
2022/02/16 05:38:30;;;;;;;3.88;3.60;;;;;;;4.17;100.00;95921.66;4991774;28;20536;-60
2022/02/16 05:40:59;;;;;;;4.00;3.70;;;;;;;4.23;100.00;95922.94;4995825;28;20081;-56
2022/02/16 05:43:27;;;;;;;4.03;3.72;;;;;;;4.19;100.00;95913.72;4992480;28;20066;-56
2022/02/16 05:45:56;;;;;;;3.50;3.30;;;;;;;4.05;100.00;95920.81;4993332;28;20069;-57
2022/02/16 05:48:25;;;;;;;3.92;3.70;;;;;;;3.97;100.00;95917.97;4996377;28;20073;-56
2022/02/16 05:50:54;;;;;;;3.97;3.78;;;;;;;3.98;100.00;95922.22;4988301;28;20066;-59
2022/02/16 05:53:22;;;;;;;3.75;3.55;;;;;;;3.98;100.00;95922.22;4993586;28;20528;-57
2022/02/16 05:55:51;;;;;;;4.05;3.75;;;;;;;3.87;100.00;95919.63;4979590;28;20082;-57
2022/02/16 05:58:19;;;;;;;3.88;3.60;;;;;;;4.01;100.00;95915.97;4986778;28;20501;-58
2022/02/16 06:00:47;;;;;;;4.05;3.80;;;;;;;4.15;100.00;95925.34;4994636;28;20497;-57
2022/02/16 06:03:16;;;;;;;3.72;3.42;;;;;;;4.02;100.00;95923.66;4998222;28;20072;-59
2022/02/16 06:05:46;;;;;;;3.90;3.70;;;;;;;4.25;100.00;95918.47;4994730;28;20077;-54
2022/02/16 06:08:14;;;;;;;4.15;3.88;;;;;;;4.32;100.00;95908.38;4994038;28;20088;-60
2022/02/16 06:10:42;;;;;;;3.95;3.65;;;;;;;4.22;100.00;95918.69;4993754;28;20086;-57
2022/02/16 06:13:13;;;;;;;3.63;3.42;;;;;;;4.51;100.00;95919.03;4991630;28;20521;-52
2022/02/16 06:15:42;;;;;;;4.00;3.70;;;;;;;4.47;100.00;95904.53;4992618;28;20074;-55
2022/02/16 06:18:11;;;;;;;4.40;4.00;;;;;;;4.59;100.00;95905.38;4985708;28;20070;-59
2022/02/16 06:20:39;;;;;;;3.90;3.60;;;;;;;4.74;100.00;95901.53;4967093;28;20062;-59
2022/02/16 06:23:09;;;;;;;3.63;3.33;;;;;;;4.72;100.00;95901.66;4970348;28;20138;-59
2022/02/16 06:25:37;;;;;;;3.78;3.42;;;;;;;4.91;100.00;95893.16;4968534;28;21533;-57
2022/02/16 06:28:08;;;;;;;4.03;3.72;;;;;;;4.85;100.00;95887.59;4967681;28;20063;-60
2022/02/16 06:30:37;;;;;;;3.20;3.00;;;;;;;4.79;100.00;95886.34;4964036;28;20062;-58
2022/02/16 06:33:05;;;;;;;3.85;3.60;;;;;;;4.92;100.00;95876.56;4975093;28;20069;-58
2022/02/16 06:35:34;;;;;;;3.50;3.22;;;;;;;4.98;100.00;95877.84;4986768;28;20066;-58
2022/02/16 06:38:06;;;;;;;3.70;3.40;;;;;;;4.56;100.00;95880.34;4992418;28;20524;-57
2022/02/16 06:40:36;;;;;;;3.67;3.42;;;;;;;4.77;100.00;95877.78;4974232;28;20799;-56
2022/02/16 06:43:04;;;;;;;3.80;3.50;;;;;;;4.71;100.00;95880.88;4968500;28;20074;-59
2022/02/16 06:45:33;;;;;;;3.78;3.47;;;;;;;4.71;100.00;95878.28;4964575;28;20062;-58
2022/02/16 06:48:01;;;;;;;3.92;3.63;;;;;;;4.86;100.00;95884.06;4971886;28;20547;-53
2022/02/16 06:50:30;;;;;;;3.65;3.45;;;;;;;4.70;100.00;95885.28;4970133;28;20078;-53
2022/02/16 06:52:58;;;;;;;3.50;3.20;;;;;;;4.82;100.00;95880.88;4969132;28;20669;-57
2022/02/16 06:55:27;;;;;;;3.35;3.05;;;;;;;4.98;100.00;95876.03;4967404;28;20063;-59
2022/02/16 06:57:57;;;;;;;4.25;3.85;;;;;;;5.00;100.00;95881.97;4966337;28;20062;-57
2022/02/16 07:00:26;;;;;;;3.92;3.63;;;;;;;5.02;100.00;95875.78;4976991;28;20080;-58
2022/02/16 07:02:54;;;;;;;4.53;3.58;;;;;;;5.12;100.00;95859.25;4982014;28;20445;-59
2022/02/16 07:05:23;;;;;;;3.80;3.10;;;;;;;5.43;100.00;95859.31;4975925;28;20090;-58
2022/02/16 07:07:51;;;;;;;4.22;3.75;;;;;;;5.10;100.00;95863.78;4988437;28;20097;-56
2022/02/16 07:10:20;;;;;;;3.78;3.47;;;;;;;5.24;100.00;95857.41;4985112;28;20078;-56
2022/02/16 07:12:48;;;;;;;4.57;3.20;;;;;;;5.42;100.00;95855.88;4988307;28;20070;-60
2022/02/16 07:15:18;;;;;;;3.30;3.10;;;;;;;5.58;100.00;95859.84;4975896;28;20066;-59
2022/02/16 07:17:46;;;;;;;3.30;3.10;;;;;;;5.61;100.00;95849.97;4969286;28;20092;-57
2022/02/16 07:20:16;;;;;;;3.28;3.08;;;;;;;5.54;100.00;95846.19;4969071;28;20093;-59
2022/02/16 07:22:46;;;;;;;3.90;3.60;;;;;;;5.40;100.00;95849.13;4970720;28;20074;-60
2022/02/16 07:25:20;;;;;;;9.82;8.05;;;;;;;5.69;100.00;95839.66;4981520;28;20533;-59
2022/02/16 07:28:10;;;;;;;12.50;7.95;;;;;;;5.66;100.00;95839.09;4986539;28;20077;-58
2022/02/16 07:30:40;;;;;;;5.82;5.20;;;;;;;5.51;100.00;95835.16;4990242;28;20074;-58
2022/02/16 07:33:08;;;;;;;36.10;19.50;;;;;;;5.93;100.00;95830.72;4991580;28;20481;-59
2022/02/16 07:35:36;;;;;;;14.77;10.07;;;;;;;5.83;100.00;95827.19;4987128;28;20066;-58
2022/02/16 07:38:05;;;;;;;12.45;10.55;;;;;;;5.70;100.00;95827.41;4991808;28;20078;-59
2022/02/16 07:40:33;;;;;;;8.43;7.68;;;;;;;6.01;100.00;95822.19;4988019;28;20069;-58
2022/02/16 07:43:02;;;;;;;6.07;5.57;;;;;;;5.97;100.00;95826.06;4984807;28;20070;-56
2022/02/16 07:45:30;;;;;;;4.30;3.80;;;;;;;5.96;100.00;95816.56;4974099;28;20067;-56
2022/02/16 07:48:01;;;;;;;4.55;4.25;;;;;;;6.15;100.00;95822.66;4968517;28;20065;-55
2022/02/16 07:50:31;;;;;;;5.88;5.32;;;;;;;5.85;100.00;95813.03;4972440;28;20089;-56
2022/02/16 07:53:01;;;;;;;5.63;5.13;;;;;;;6.09;100.00;95811.88;4991965;28;20543;-58
2022/02/16 07:55:32;;;;;;;4.60;4.20;;;;;;;6.03;100.00;95808.03;4985079;28;20054;-59
2022/02/16 07:58:02;;;;;;;3.60;3.30;;;;;;;6.44;100.00;95808.00;4991465;28;20077;-59
2022/02/16 08:00:34;;;;;;;4.50;3.08;;;;;;;6.13;100.00;95808.91;4982588;28;20062;-57
2022/02/16 08:03:05;;;;;;;3.30;3.00;;;;;;;6.68;100.00;95803.22;4989290;28;20572;-60
2022/02/16 08:05:36;;;;;;;3.40;3.10;;;;;;;6.61;100.00;95799.47;4997346;28;20069;-59
2022/02/16 08:08:04;;;;;;;3.30;3.00;;;;;;;7.10;100.00;95789.81;4991173;28;20504;-60
2022/02/16 08:10:33;;;;;;;3.30;3.00;;;;;;;7.04;100.00;95780.72;4986743;28;20078;-59
2022/02/16 08:13:01;;;;;;;3.10;2.90;;;;;;;7.43;100.00;95790.31;4991055;28;20066;-60
2022/02/16 08:15:34;;;;;;;3.53;3.08;;;;;;;7.43;100.00;95788.50;4991253;28;20065;-59
2022/02/16 08:18:02;;;;;;;3.30;3.10;;;;;;;7.69;100.00;95775.59;4987888;28;20072;-58
2022/02/16 08:20:33;;;;;;;3.63;3.33;;;;;;;7.60;100.00;95782.56;4990206;28;21239;-59
2022/02/16 08:23:01;;;;;;;4.10;3.80;;;;;;;7.46;100.00;95777.72;4989747;28;20540;-60
2022/02/16 08:25:32;;;;;;;;;;;;;;;7.85;100.00;95783.69;4994232;28;20078;-59
2022/02/16 08:28:01;;;;;;;3.92;3.63;;;;;;;8.05;100.00;95780.97;4983739;28;20387;-61
2022/02/16 08:30:29;;;;;;;3.95;2.70;;;;;;;7.80;100.00;95783.28;4986448;28;20080;-58
2022/02/16 08:32:58;;;;;;;4.38;3.63;;;;;;;7.81;100.00;95770.97;4991224;28;20070;-60
2022/02/16 08:35:26;;;;;;;4.47;4.07;;;;;;;8.21;100.00;95775.09;4987320;28;20148;-59
2022/02/16 08:37:57;;;;;;;3.10;2.90;;;;;;;8.36;100.00;95755.22;4988354;28;20100;-59
2022/02/16 08:40:26;;;;;;;5.07;3.90;;;;;;;8.33;100.00;95756.38;4988720;28;20178;-57
2022/02/16 08:43:14;;;;;;;4.20;3.63;;;;;;;8.14;100.00;95764.34;4991895;28;20077;-59
2022/02/16 08:45:43;;;;;;;5.10;3.92;;;;;;;8.11;100.00;95753.31;4992059;28;20068;-58
2022/02/16 08:48:12;;;;;;;3.55;3.25;;;;;;;8.46;100.00;95756.00;4992333;28;20317;-57
2022/02/16 08:50:40;;;;;;;4.30;3.97;;;;;;;8.30;100.00;95751.41;4980795;28;20084;-58
2022/02/16 08:53:10;;;;;;;3.60;3.30;;;;;;;8.68;100.00;95749.50;4970671;28;20089;-60
2022/02/16 08:55:41;;;;;;;3.20;2.90;;;;;;;8.29;100.00;95741.88;4965014;28;21273;-61
2022/02/16 08:58:10;;;;;;;3.58;3.10;;;;;;;8.67;100.00;95734.72;4966757;28;20465;-60
2022/02/16 09:00:38;;;;;;;2.80;2.60;;;;;;;8.39;100.00;95741.00;4969281;28;20075;-59
2022/02/16 09:03:07;;;;;;;4.88;2.95;;;;;;;8.54;100.00;95731.63;4968454;28;20047;-59
2022/02/16 09:05:36;;;;;;;3.58;2.97;;;;;;;9.11;100.00;95716.31;4964674;28;20066;-59
2022/02/16 09:08:05;;;;;;;3.35;3.05;;;;;;;9.18;100.00;95717.34;4968136;28;20081;-60
2022/02/16 09:10:34;;;;;;;4.38;2.80;;;;;;;9.08;100.00;95719.25;4984148;28;20460;-59
2022/02/16 09:13:06;;;;;;;2.90;2.70;;;;;;;9.40;100.00;95710.75;4987675;28;20058;-60
2022/02/16 09:15:35;;;;;;;5.75;2.70;;;;;;;8.98;100.00;95705.38;4986299;28;20480;-58
2022/02/16 09:18:06;;;;;;;4.10;2.60;;;;;;;9.19;100.00;95697.97;4986583;28;20516;-61
2022/02/16 09:20:35;;;;;;;4.97;3.20;;;;;;;9.22;100.00;95688.94;4990358;28;20058;-59
2022/02/16 09:23:03;;;;;;;4.43;2.80;;;;;;;9.41;100.00;95703.69;4989288;28;20085;-59
2022/02/16 09:25:33;;;;;;;3.40;2.70;;;;;;;9.39;100.00;95692.47;4987918;28;20085;-60
2022/02/16 09:28:02;;;;;;;5.47;2.83;;;;;;;9.54;100.00;95695.38;4989782;28;20117;-59
2022/02/16 09:30:31;;;;;;;3.10;2.80;;;;;;;9.33;100.00;95690.50;4988407;28;20072;-59
2022/02/16 09:33:00;;;;;;;2.20;2.10;;;;;;;9.18;100.00;95691.03;4991297;28;20058;-60
2022/02/16 09:35:29;;;;;;;2.75;2.53;;;;;;;9.73;100.00;95688.03;5002829;28;20070;-60
2022/02/16 09:37:57;;;;;;;2.55;2.35;;;;;;;9.58;100.00;95680.91;4987287;28;20062;-60
2022/02/16 09:40:28;;;;;;;3.45;2.20;;;;;;;9.66;100.00;95670.41;4987349;28;20066;-60
2022/02/16 09:43:01;;;;;;;2.40;2.20;;;;;;;9.42;100.00;95665.88;4994423;28;20077;-60
2022/02/16 09:45:31;;;;;;;2.30;2.13;;;;;;;9.80;100.00;95658.44;4993174;28;20073;-61
2022/02/16 09:48:00;;;;;;;2.30;2.10;;;;;;;10.03;100.00;95651.63;4990661;28;20073;-60
2022/02/16 09:50:28;;;;;;;2.10;2.00;;;;;;;10.29;100.00;95654.19;4988372;28;20069;-58
2022/02/16 09:52:58;;;;;;;2.30;2.10;;;;;;;9.71;100.00;95634.75;4993226;28;20269;-58
2022/02/16 09:55:27;;;;;;;2.85;2.10;;;;;;;10.12;100.00;95634.84;4978454;28;20490;-60
2022/02/16 09:57:55;;;;;;;2.00;1.90;;;;;;;10.07;100.00;95636.31;4985933;28;20480;-61
2022/02/16 10:00:25;;;;;;;3.78;1.90;;;;;;;9.94;100.00;95640.25;4989276;28;20072;-60
2022/02/16 10:02:54;;;;;;;4.85;2.00;;;;;;;9.86;100.00;95629.69;4988867;28;20066;-61
2022/02/16 10:05:22;;;;;;;2.28;2.10;;;;;;;9.97;100.00;95628.53;4992905;28;20078;-59
2022/02/16 10:07:51;;;;;;;2.83;2.20;;;;;;;10.52;100.00;95632.44;4998594;28;20533;-59
2022/02/16 10:10:21;;;;;;;2.60;2.10;;;;;;;10.23;100.00;95638.97;4991741;28;20062;-59
2022/02/16 10:12:51;;;;;;;2.50;2.30;;;;;;;10.20;100.00;95634.03;4989584;28;20089;-60
2022/02/16 10:15:22;;;;;;;2.33;2.03;;;;;;;10.11;99.74;95635.00;4992148;28;20507;-60
2022/02/16 10:18:05;;;;;;;2.63;2.10;;;;;;;10.50;100.00;95622.06;4988517;28;20070;-60
2022/02/16 10:20:34;;;;;;;2.53;2.15;;;;;;;10.56;97.75;95615.28;4989381;28;20446;-60
2022/02/16 10:23:02;;;;;;;2.20;2.00;;;;;;;10.76;100.00;95621.06;4997291;28;20461;-58
2022/02/16 10:25:33;;;;;;;2.33;2.03;;;;;;;10.52;100.00;95619.25;4988895;28;20061;-60
2022/02/16 10:28:08;;;;;;;2.53;2.13;;;;;;;10.92;100.00;95627.13;4993191;28;20065;-60
2022/02/16 10:30:42;;;;;;;2.00;1.80;;;;;;;10.65;100.00;95625.69;4991360;28;20085;-59
2022/02/16 10:33:21;;;;;;;2.25;1.73;;;;;;;10.49;100.00;95624.84;4994854;28;20073;-60
2022/02/16 10:35:51;;;;;;;2.50;2.05;;;;;;;10.71;100.00;95624.22;4991447;28;20070;-59
2022/02/16 10:38:20;;;;;;;3.08;1.85;;;;;;;10.57;100.00;95622.25;4987910;28;20065;-60
2022/02/16 10:41:00;;;;;;;1.80;1.70;;;;;;;10.73;100.00;95616.94;4973499;28;20086;-58
2022/02/16 10:43:32;;;;;;;2.03;1.70;;;;;;;11.00;100.00;95613.09;4968517;28;20071;-60
2022/02/16 10:46:01;;;;;;;1.60;1.50;;;;;;;10.77;100.00;95605.09;4974581;28;20069;-60
2022/02/16 10:48:31;;;;;;;1.70;1.60;;;;;;;10.86;100.00;95605.88;4973657;28;20062;-61
2022/02/16 10:50:59;;;;;;;1.60;1.50;;;;;;;11.06;100.00;95615.09;4973603;28;20066;-60
2022/02/16 10:53:30;;;;;;;1.70;1.60;;;;;;;10.98;100.00;95608.97;4971638;28;20082;-61
2022/02/16 10:56:00;;;;;;;2.08;1.70;;;;;;;10.83;100.00;95616.75;4968208;28;20082;-61
2022/02/16 10:58:28;;;;;;;1.70;1.60;;;;;;;10.68;100.00;95619.25;4971696;28;20454;-61
2022/02/16 11:00:59;;;;;;;1.83;1.70;;;;;;;10.92;100.00;95616.59;4968222;28;20074;-61
2022/02/16 11:03:31;;;;;;;2.05;1.70;;;;;;;10.53;100.00;95624.38;4977487;28;20486;-60
2022/02/16 11:06:02;;;;;;;3.25;1.80;;;;;;;10.44;100.00;95618.28;4989917;28;20077;-60
2022/02/16 11:08:32;;;;;;;1.80;1.70;;;;;;;10.76;100.00;95597.31;4990764;28;20555;-61
2022/02/16 11:11:21;;;;;;;1.70;1.60;;;;;;;10.91;100.00;95611.50;4987488;28;20517;-59
2022/02/16 11:14:00;;;;;;;1.80;1.70;;;;;;;10.54;100.00;95609.38;4986312;28;20090;-60
2022/02/16 11:16:29;;;;;;;1.90;1.80;;;;;;;10.58;100.00;95605.44;4988707;28;20069;-56
2022/02/16 11:19:03;;;;;;;1.70;1.60;;;;;;;10.51;100.00;95609.72;4988037;28;20069;-61
2022/02/16 11:21:32;;;;;;;1.80;1.70;;;;;;;10.44;100.00;95607.72;4986735;28;20547;-59
2022/02/16 11:24:01;;;;;;;1.95;1.60;;;;;;;10.52;100.00;95600.81;4986000;28;20105;-60
2022/02/16 11:26:38;;;;;;;1.80;1.70;;;;;;;10.72;100.00;95594.19;4989214;28;20073;-59
2022/02/16 11:29:10;;;;;;;1.80;1.70;;;;;;;10.25;100.00;95580.84;4990323;28;20489;-61
2022/02/16 11:31:41;;;;;;;1.67;1.58;;;;;;;10.64;100.00;95595.03;4983167;28;20066;-58
2022/02/16 11:34:20;;;;;;;1.70;1.60;;;;;;;10.74;100.00;95578.22;4988933;28;20066;-60
2022/02/16 11:36:55;;;;;;;1.77;1.67;;;;;;;10.35;100.00;95582.34;4971469;28;20074;-58
2022/02/16 11:40:00;;;;;;;1.83;1.73;;;;;;;10.53;100.00;95576.09;4976788;28;20564;-56
2022/02/16 11:42:55;;;;;;;1.88;1.77;;;;;;;10.57;100.00;95575.59;4989101;28;20066;-55